sensor_id;sensor_type;location;lat;lon;timestamp;P1;durP1;ratioP1;P2;durP2;ratioP2
12681;SDS011;6405;59.208;18.216;2024-01-30T00:01:25;18.80;;;9.03;;
12681;SDS011;6405;59.208;18.216;2024-01-30T00:03:51;18.17;;;8.97;;
12681;SDS011;6405;59.208;18.216;2024-01-30T00:06:20;17.23;;;7.77;;
12681;SDS011;6405;59.208;18.216;2024-01-30T00:08:46;17.37;;;8.60;;
12681;SDS011;6405;59.208;18.216;2024-01-30T00:11:14;15.47;;;8.40;;
12681;SDS011;6405;59.208;18.216;2024-01-30T00:13:40;15.90;;;8.57;;
12681;SDS011;6405;59.208;18.216;2024-01-30T00:16:06;19.93;;;8.33;;
12681;SDS011;6405;59.208;18.216;2024-01-30T00:18:33;17.47;;;7.63;;
12681;SDS011;6405;59.208;18.216;2024-01-30T00:20:59;14.17;;;7.47;;
12681;SDS011;6405;59.208;18.216;2024-01-30T00:23:25;18.23;;;7.77;;
12681;SDS011;6405;59.208;18.216;2024-01-30T00:25:51;18.70;;;7.67;;
12681;SDS011;6405;59.208;18.216;2024-01-30T00:28:16;20.77;;;9.17;;
12681;SDS011;6405;59.208;18.216;2024-01-30T00:30:42;17.50;;;8.20;;
12681;SDS011;6405;59.208;18.216;2024-01-30T00:33:08;17.73;;;8.20;;
12681;SDS011;6405;59.208;18.216;2024-01-30T00:35:34;15.63;;;8.13;;
12681;SDS011;6405;59.208;18.216;2024-01-30T00:38:00;16.60;;;8.17;;
12681;SDS011;6405;59.208;18.216;2024-01-30T00:40:26;15.93;;;7.90;;
12681;SDS011;6405;59.208;18.216;2024-01-30T00:42:51;20.47;;;7.23;;
12681;SDS011;6405;59.208;18.216;2024-01-30T00:45:17;21.77;;;8.40;;
12681;SDS011;6405;59.208;18.216;2024-01-30T00:47:43;22.50;;;8.17;;
12681;SDS011;6405;59.208;18.216;2024-01-30T00:50:10;15.53;;;8.23;;
12681;SDS011;6405;59.208;18.216;2024-01-30T00:52:36;15.87;;;7.67;;
12681;SDS011;6405;59.208;18.216;2024-01-30T00:55:04;18.60;;;8.30;;
12681;SDS011;6405;59.208;18.216;2024-01-30T00:57:30;17.37;;;8.03;;
12681;SDS011;6405;59.208;18.216;2024-01-30T00:59:56;23.50;;;8.57;;
12681;SDS011;6405;59.208;18.216;2024-01-30T01:02:22;16.73;;;7.97;;
12681;SDS011;6405;59.208;18.216;2024-01-30T01:04:48;17.20;;;8.17;;
12681;SDS011;6405;59.208;18.216;2024-01-30T01:07:13;17.23;;;8.10;;
12681;SDS011;6405;59.208;18.216;2024-01-30T01:09:39;25.60;;;9.03;;
12681;SDS011;6405;59.208;18.216;2024-01-30T01:12:05;20.53;;;8.83;;
12681;SDS011;6405;59.208;18.216;2024-01-30T01:14:31;20.40;;;8.97;;
12681;SDS011;6405;59.208;18.216;2024-01-30T01:16:56;20.20;;;9.40;;
12681;SDS011;6405;59.208;18.216;2024-01-30T01:19:22;23.50;;;9.43;;
12681;SDS011;6405;59.208;18.216;2024-01-30T01:21:48;18.37;;;9.00;;
12681;SDS011;6405;59.208;18.216;2024-01-30T01:24:13;20.43;;;8.57;;
12681;SDS011;6405;59.208;18.216;2024-01-30T01:26:39;21.33;;;8.90;;
12681;SDS011;6405;59.208;18.216;2024-01-30T01:29:08;17.57;;;7.90;;
12681;SDS011;6405;59.208;18.216;2024-01-30T01:31:37;22.07;;;9.47;;
12681;SDS011;6405;59.208;18.216;2024-01-30T01:34:12;15.73;;;7.80;;
12681;SDS011;6405;59.208;18.216;2024-01-30T01:36:38;18.57;;;8.03;;
12681;SDS011;6405;59.208;18.216;2024-01-30T01:39:04;29.53;;;8.40;;
12681;SDS011;6405;59.208;18.216;2024-01-30T01:41:31;16.80;;;7.70;;
12681;SDS011;6405;59.208;18.216;2024-01-30T01:43:57;19.23;;;9.10;;
12681;SDS011;6405;59.208;18.216;2024-01-30T01:46:26;20.60;;;8.60;;
12681;SDS011;6405;59.208;18.216;2024-01-30T01:48:52;15.70;;;8.03;;
12681;SDS011;6405;59.208;18.216;2024-01-30T01:51:20;18.17;;;7.77;;
12681;SDS011;6405;59.208;18.216;2024-01-30T01:53:46;19.80;;;8.63;;
12681;SDS011;6405;59.208;18.216;2024-01-30T01:56:12;19.63;;;8.67;;
12681;SDS011;6405;59.208;18.216;2024-01-30T01:58:38;18.03;;;8.23;;
12681;SDS011;6405;59.208;18.216;2024-01-30T02:01:05;15.53;;;7.60;;
12681;SDS011;6405;59.208;18.216;2024-01-30T02:03:31;17.37;;;7.93;;
12681;SDS011;6405;59.208;18.216;2024-01-30T02:05:58;16.53;;;8.00;;
12681;SDS011;6405;59.208;18.216;2024-01-30T02:08:24;19.57;;;8.73;;
12681;SDS011;6405;59.208;18.216;2024-01-30T02:10:50;19.27;;;9.27;;
12681;SDS011;6405;59.208;18.216;2024-01-30T02:13:15;23.10;;;9.63;;
12681;SDS011;6405;59.208;18.216;2024-01-30T02:15:41;19.10;;;10.20;;
12681;SDS011;6405;59.208;18.216;2024-01-30T02:18:07;13.57;;;8.10;;
12681;SDS011;6405;59.208;18.216;2024-01-30T02:20:33;12.47;;;7.43;;
12681;SDS011;6405;59.208;18.216;2024-01-30T02:23:00;17.37;;;7.83;;
12681;SDS011;6405;59.208;18.216;2024-01-30T02:25:33;16.47;;;8.03;;
12681;SDS011;6405;59.208;18.216;2024-01-30T02:28:00;13.40;;;7.87;;
12681;SDS011;6405;59.208;18.216;2024-01-30T02:30:26;15.83;;;8.03;;
12681;SDS011;6405;59.208;18.216;2024-01-30T02:32:52;16.10;;;8.03;;
12681;SDS011;6405;59.208;18.216;2024-01-30T02:35:18;14.00;;;7.50;;
12681;SDS011;6405;59.208;18.216;2024-01-30T02:37:43;16.13;;;8.00;;
12681;SDS011;6405;59.208;18.216;2024-01-30T02:40:09;17.80;;;7.70;;
12681;SDS011;6405;59.208;18.216;2024-01-30T02:42:35;25.57;;;9.67;;
12681;SDS011;6405;59.208;18.216;2024-01-30T02:45:00;22.17;;;9.67;;
12681;SDS011;6405;59.208;18.216;2024-01-30T02:47:26;19.83;;;9.00;;
12681;SDS011;6405;59.208;18.216;2024-01-30T02:49:52;21.70;;;8.47;;
12681;SDS011;6405;59.208;18.216;2024-01-30T02:52:17;20.40;;;9.03;;
12681;SDS011;6405;59.208;18.216;2024-01-30T02:54:44;26.87;;;9.23;;
12681;SDS011;6405;59.208;18.216;2024-01-30T02:57:10;19.47;;;8.03;;
12681;SDS011;6405;59.208;18.216;2024-01-30T02:59:35;21.37;;;9.23;;
12681;SDS011;6405;59.208;18.216;2024-01-30T03:02:01;19.97;;;9.13;;
12681;SDS011;6405;59.208;18.216;2024-01-30T03:04:27;21.50;;;8.33;;
12681;SDS011;6405;59.208;18.216;2024-01-30T03:06:55;22.57;;;9.10;;
12681;SDS011;6405;59.208;18.216;2024-01-30T03:09:20;23.07;;;8.53;;
12681;SDS011;6405;59.208;18.216;2024-01-30T03:11:46;19.97;;;9.40;;
12681;SDS011;6405;59.208;18.216;2024-01-30T03:14:12;24.87;;;9.50;;
12681;SDS011;6405;59.208;18.216;2024-01-30T03:16:37;25.27;;;9.20;;
12681;SDS011;6405;59.208;18.216;2024-01-30T03:19:04;21.93;;;8.67;;
12681;SDS011;6405;59.208;18.216;2024-01-30T03:21:32;34.60;;;10.00;;
12681;SDS011;6405;59.208;18.216;2024-01-30T03:23:58;16.97;;;8.37;;
12681;SDS011;6405;59.208;18.216;2024-01-30T03:26:24;31.17;;;8.93;;
12681;SDS011;6405;59.208;18.216;2024-01-30T03:28:50;33.23;;;10.33;;
12681;SDS011;6405;59.208;18.216;2024-01-30T03:31:16;23.13;;;8.80;;
12681;SDS011;6405;59.208;18.216;2024-01-30T03:33:42;22.20;;;9.00;;
12681;SDS011;6405;59.208;18.216;2024-01-30T03:36:08;45.17;;;11.83;;
12681;SDS011;6405;59.208;18.216;2024-01-30T03:38:34;66.63;;;12.43;;
12681;SDS011;6405;59.208;18.216;2024-01-30T03:41:00;45.37;;;11.97;;
12681;SDS011;6405;59.208;18.216;2024-01-30T03:43:26;32.70;;;10.60;;
12681;SDS011;6405;59.208;18.216;2024-01-30T03:45:52;35.13;;;11.73;;
12681;SDS011;6405;59.208;18.216;2024-01-30T03:48:18;54.47;;;13.43;;
12681;SDS011;6405;59.208;18.216;2024-01-30T03:50:45;52.73;;;13.20;;
12681;SDS011;6405;59.208;18.216;2024-01-30T03:53:10;40.50;;;11.53;;
12681;SDS011;6405;59.208;18.216;2024-01-30T03:55:36;84.93;;;15.50;;
12681;SDS011;6405;59.208;18.216;2024-01-30T03:58:02;48.67;;;12.37;;
12681;SDS011;6405;59.208;18.216;2024-01-30T04:00:27;32.87;;;11.00;;
12681;SDS011;6405;59.208;18.216;2024-01-30T04:02:53;31.97;;;10.87;;
12681;SDS011;6405;59.208;18.216;2024-01-30T04:05:19;34.73;;;11.30;;
12681;SDS011;6405;59.208;18.216;2024-01-30T04:07:44;32.13;;;10.53;;
12681;SDS011;6405;59.208;18.216;2024-01-30T04:10:10;44.50;;;13.10;;
12681;SDS011;6405;59.208;18.216;2024-01-30T04:12:36;40.97;;;11.47;;
12681;SDS011;6405;59.208;18.216;2024-01-30T04:15:02;43.53;;;10.87;;
12681;SDS011;6405;59.208;18.216;2024-01-30T04:17:28;51.07;;;12.07;;
12681;SDS011;6405;59.208;18.216;2024-01-30T04:19:54;30.73;;;10.73;;
12681;SDS011;6405;59.208;18.216;2024-01-30T04:22:20;22.77;;;9.37;;
12681;SDS011;6405;59.208;18.216;2024-01-30T04:24:46;28.50;;;10.10;;
12681;SDS011;6405;59.208;18.216;2024-01-30T04:27:12;36.77;;;10.97;;
12681;SDS011;6405;59.208;18.216;2024-01-30T04:29:38;36.70;;;10.93;;
12681;SDS011;6405;59.208;18.216;2024-01-30T04:32:04;39.57;;;11.30;;
12681;SDS011;6405;59.208;18.216;2024-01-30T04:34:29;48.70;;;12.67;;
12681;SDS011;6405;59.208;18.216;2024-01-30T04:36:55;63.87;;;12.93;;
12681;SDS011;6405;59.208;18.216;2024-01-30T04:39:21;46.10;;;12.17;;
12681;SDS011;6405;59.208;18.216;2024-01-30T04:41:47;52.40;;;12.73;;
12681;SDS011;6405;59.208;18.216;2024-01-30T04:44:13;35.77;;;10.67;;
12681;SDS011;6405;59.208;18.216;2024-01-30T04:46:39;42.63;;;12.10;;
12681;SDS011;6405;59.208;18.216;2024-01-30T04:49:05;53.17;;;11.93;;
12681;SDS011;6405;59.208;18.216;2024-01-30T04:51:32;24.93;;;10.20;;
12681;SDS011;6405;59.208;18.216;2024-01-30T04:53:58;33.10;;;10.53;;
12681;SDS011;6405;59.208;18.216;2024-01-30T04:56:24;37.27;;;11.73;;
12681;SDS011;6405;59.208;18.216;2024-01-30T04:58:50;36.43;;;12.23;;
12681;SDS011;6405;59.208;18.216;2024-01-30T05:01:16;40.10;;;11.37;;
12681;SDS011;6405;59.208;18.216;2024-01-30T05:03:42;30.53;;;10.77;;
12681;SDS011;6405;59.208;18.216;2024-01-30T05:06:08;53.27;;;12.53;;
12681;SDS011;6405;59.208;18.216;2024-01-30T05:08:34;57.70;;;12.43;;
12681;SDS011;6405;59.208;18.216;2024-01-30T05:11:02;51.70;;;12.30;;
12681;SDS011;6405;59.208;18.216;2024-01-30T05:13:30;27.70;;;10.07;;
12681;SDS011;6405;59.208;18.216;2024-01-30T05:15:56;29.07;;;9.60;;
12681;SDS011;6405;59.208;18.216;2024-01-30T05:18:21;24.40;;;10.03;;
12681;SDS011;6405;59.208;18.216;2024-01-30T05:20:47;31.10;;;10.00;;
12681;SDS011;6405;59.208;18.216;2024-01-30T05:23:13;27.93;;;10.43;;
12681;SDS011;6405;59.208;18.216;2024-01-30T05:25:39;27.47;;;11.37;;
12681;SDS011;6405;59.208;18.216;2024-01-30T05:28:05;30.67;;;11.60;;
12681;SDS011;6405;59.208;18.216;2024-01-30T05:30:30;34.70;;;12.30;;
12681;SDS011;6405;59.208;18.216;2024-01-30T05:32:56;34.27;;;10.37;;
12681;SDS011;6405;59.208;18.216;2024-01-30T05:35:22;44.30;;;16.53;;
12681;SDS011;6405;59.208;18.216;2024-01-30T05:37:48;31.20;;;10.80;;
12681;SDS011;6405;59.208;18.216;2024-01-30T05:40:15;49.20;;;11.77;;
12681;SDS011;6405;59.208;18.216;2024-01-30T05:42:41;68.50;;;12.73;;
12681;SDS011;6405;59.208;18.216;2024-01-30T05:45:07;45.57;;;11.73;;
12681;SDS011;6405;59.208;18.216;2024-01-30T05:47:33;55.10;;;13.13;;
12681;SDS011;6405;59.208;18.216;2024-01-30T05:50:02;82.10;;;14.23;;
12681;SDS011;6405;59.208;18.216;2024-01-30T05:52:28;69.30;;;13.07;;
12681;SDS011;6405;59.208;18.216;2024-01-30T05:54:53;74.03;;;13.40;;
12681;SDS011;6405;59.208;18.216;2024-01-30T05:57:19;52.80;;;12.00;;
12681;SDS011;6405;59.208;18.216;2024-01-30T05:59:45;71.70;;;13.10;;
12681;SDS011;6405;59.208;18.216;2024-01-30T06:02:13;51.43;;;11.73;;
12681;SDS011;6405;59.208;18.216;2024-01-30T06:04:39;66.70;;;12.73;;
12681;SDS011;6405;59.208;18.216;2024-01-30T06:07:04;93.93;;;13.47;;
12681;SDS011;6405;59.208;18.216;2024-01-30T06:09:31;91.77;;;21.07;;
12681;SDS011;6405;59.208;18.216;2024-01-30T06:11:57;101.43;;;14.57;;
12681;SDS011;6405;59.208;18.216;2024-01-30T06:14:23;76.50;;;15.37;;
12681;SDS011;6405;59.208;18.216;2024-01-30T06:16:49;87.07;;;13.47;;
12681;SDS011;6405;59.208;18.216;2024-01-30T06:19:15;41.43;;;11.47;;
12681;SDS011;6405;59.208;18.216;2024-01-30T06:21:41;42.63;;;10.13;;
12681;SDS011;6405;59.208;18.216;2024-01-30T06:24:06;50.27;;;11.50;;
12681;SDS011;6405;59.208;18.216;2024-01-30T06:26:32;45.87;;;11.77;;
12681;SDS011;6405;59.208;18.216;2024-01-30T06:28:58;74.07;;;13.87;;
12681;SDS011;6405;59.208;18.216;2024-01-30T06:31:24;42.00;;;13.20;;
12681;SDS011;6405;59.208;18.216;2024-01-30T06:33:52;30.10;;;10.13;;
12681;SDS011;6405;59.208;18.216;2024-01-30T06:36:18;42.43;;;10.40;;
12681;SDS011;6405;59.208;18.216;2024-01-30T06:38:44;21.87;;;8.93;;
12681;SDS011;6405;59.208;18.216;2024-01-30T06:41:09;18.80;;;8.30;;
12681;SDS011;6405;59.208;18.216;2024-01-30T06:43:35;28.67;;;8.87;;
12681;SDS011;6405;59.208;18.216;2024-01-30T06:46:01;24.50;;;9.13;;
12681;SDS011;6405;59.208;18.216;2024-01-30T06:48:27;35.80;;;9.77;;
12681;SDS011;6405;59.208;18.216;2024-01-30T06:50:53;46.47;;;9.40;;
12681;SDS011;6405;59.208;18.216;2024-01-30T06:53:19;40.47;;;9.60;;
12681;SDS011;6405;59.208;18.216;2024-01-30T06:55:45;30.00;;;10.10;;
12681;SDS011;6405;59.208;18.216;2024-01-30T06:58:11;34.53;;;10.63;;
12681;SDS011;6405;59.208;18.216;2024-01-30T07:00:37;24.03;;;10.43;;
12681;SDS011;6405;59.208;18.216;2024-01-30T07:03:02;48.03;;;14.40;;
12681;SDS011;6405;59.208;18.216;2024-01-30T07:05:28;45.93;;;11.20;;
12681;SDS011;6405;59.208;18.216;2024-01-30T07:07:54;47.07;;;15.50;;
12681;SDS011;6405;59.208;18.216;2024-01-30T07:10:20;50.50;;;11.07;;
12681;SDS011;6405;59.208;18.216;2024-01-30T07:12:45;29.53;;;10.33;;
12681;SDS011;6405;59.208;18.216;2024-01-30T07:15:11;57.50;;;13.43;;
12681;SDS011;6405;59.208;18.216;2024-01-30T07:17:39;40.17;;;11.20;;
12681;SDS011;6405;59.208;18.216;2024-01-30T07:20:05;33.27;;;11.50;;
12681;SDS011;6405;59.208;18.216;2024-01-30T07:22:32;35.30;;;11.80;;
12681;SDS011;6405;59.208;18.216;2024-01-30T07:24:58;27.60;;;10.20;;
12681;SDS011;6405;59.208;18.216;2024-01-30T07:27:24;31.60;;;10.70;;
12681;SDS011;6405;59.208;18.216;2024-01-30T07:29:50;33.33;;;10.50;;
12681;SDS011;6405;59.208;18.216;2024-01-30T07:32:15;26.63;;;10.33;;
12681;SDS011;6405;59.208;18.216;2024-01-30T07:34:41;51.03;;;20.80;;
12681;SDS011;6405;59.208;18.216;2024-01-30T07:37:07;48.87;;;14.77;;
12681;SDS011;6405;59.208;18.216;2024-01-30T07:39:33;52.17;;;13.57;;
12681;SDS011;6405;59.208;18.216;2024-01-30T07:41:59;44.90;;;13.80;;
12681;SDS011;6405;59.208;18.216;2024-01-30T07:44:25;33.40;;;12.33;;
12681;SDS011;6405;59.208;18.216;2024-01-30T07:46:51;27.17;;;11.13;;
12681;SDS011;6405;59.208;18.216;2024-01-30T07:49:17;27.80;;;11.70;;
12681;SDS011;6405;59.208;18.216;2024-01-30T07:51:42;22.20;;;10.13;;
12681;SDS011;6405;59.208;18.216;2024-01-30T07:54:12;27.23;;;10.43;;
12681;SDS011;6405;59.208;18.216;2024-01-30T07:56:38;24.07;;;9.90;;
12681;SDS011;6405;59.208;18.216;2024-01-30T07:59:04;19.17;;;10.57;;
12681;SDS011;6405;59.208;18.216;2024-01-30T08:01:29;23.87;;;9.77;;
12681;SDS011;6405;59.208;18.216;2024-01-30T08:03:55;22.43;;;10.07;;
12681;SDS011;6405;59.208;18.216;2024-01-30T08:06:21;21.77;;;9.83;;
12681;SDS011;6405;59.208;18.216;2024-01-30T08:08:46;16.10;;;8.70;;
12681;SDS011;6405;59.208;18.216;2024-01-30T08:11:12;15.10;;;8.43;;
12681;SDS011;6405;59.208;18.216;2024-01-30T08:13:38;19.63;;;9.87;;
12681;SDS011;6405;59.208;18.216;2024-01-30T08:16:04;18.60;;;9.27;;
12681;SDS011;6405;59.208;18.216;2024-01-30T08:18:30;15.80;;;9.33;;
12681;SDS011;6405;59.208;18.216;2024-01-30T08:20:56;19.57;;;9.73;;
12681;SDS011;6405;59.208;18.216;2024-01-30T08:23:22;19.53;;;10.00;;
12681;SDS011;6405;59.208;18.216;2024-01-30T08:25:48;24.00;;;10.30;;
12681;SDS011;6405;59.208;18.216;2024-01-30T08:28:14;22.17;;;9.57;;
12681;SDS011;6405;59.208;18.216;2024-01-30T08:30:39;21.60;;;10.00;;
12681;SDS011;6405;59.208;18.216;2024-01-30T08:33:05;20.77;;;9.73;;
12681;SDS011;6405;59.208;18.216;2024-01-30T08:35:31;21.43;;;9.80;;
12681;SDS011;6405;59.208;18.216;2024-01-30T08:37:58;28.70;;;11.60;;
12681;SDS011;6405;59.208;18.216;2024-01-30T08:40:25;18.17;;;9.57;;
12681;SDS011;6405;59.208;18.216;2024-01-30T08:42:50;18.67;;;9.50;;
12681;SDS011;6405;59.208;18.216;2024-01-30T08:45:16;21.00;;;10.13;;
12681;SDS011;6405;59.208;18.216;2024-01-30T08:47:42;19.43;;;9.87;;
12681;SDS011;6405;59.208;18.216;2024-01-30T08:50:08;21.20;;;9.03;;
12681;SDS011;6405;59.208;18.216;2024-01-30T08:52:33;17.43;;;9.00;;
12681;SDS011;6405;59.208;18.216;2024-01-30T08:54:59;21.93;;;10.93;;
12681;SDS011;6405;59.208;18.216;2024-01-30T08:57:25;19.93;;;8.97;;
12681;SDS011;6405;59.208;18.216;2024-01-30T08:59:54;18.13;;;9.40;;
12681;SDS011;6405;59.208;18.216;2024-01-30T09:02:20;23.17;;;8.80;;
12681;SDS011;6405;59.208;18.216;2024-01-30T09:04:46;22.10;;;8.77;;
12681;SDS011;6405;59.208;18.216;2024-01-30T09:07:11;23.80;;;9.23;;
12681;SDS011;6405;59.208;18.216;2024-01-30T09:09:38;18.53;;;8.50;;
12681;SDS011;6405;59.208;18.216;2024-01-30T09:12:07;25.10;;;9.50;;
12681;SDS011;6405;59.208;18.216;2024-01-30T09:14:34;17.83;;;8.87;;
12681;SDS011;6405;59.208;18.216;2024-01-30T09:17:01;21.50;;;8.60;;
12681;SDS011;6405;59.208;18.216;2024-01-30T09:19:28;20.63;;;9.67;;
12681;SDS011;6405;59.208;18.216;2024-01-30T09:21:54;22.67;;;8.60;;
12681;SDS011;6405;59.208;18.216;2024-01-30T09:24:19;28.63;;;10.30;;
12681;SDS011;6405;59.208;18.216;2024-01-30T09:26:45;25.07;;;9.03;;
12681;SDS011;6405;59.208;18.216;2024-01-30T09:29:11;21.83;;;8.90;;
12681;SDS011;6405;59.208;18.216;2024-01-30T09:31:36;23.90;;;9.53;;
12681;SDS011;6405;59.208;18.216;2024-01-30T09:34:02;25.90;;;9.77;;
12681;SDS011;6405;59.208;18.216;2024-01-30T09:36:28;26.20;;;10.00;;
12681;SDS011;6405;59.208;18.216;2024-01-30T09:38:54;23.37;;;9.87;;
12681;SDS011;6405;59.208;18.216;2024-01-30T09:41:19;22.63;;;10.23;;
12681;SDS011;6405;59.208;18.216;2024-01-30T09:43:48;19.57;;;10.13;;
12681;SDS011;6405;59.208;18.216;2024-01-30T09:46:16;25.33;;;10.50;;
12681;SDS011;6405;59.208;18.216;2024-01-30T09:48:48;20.37;;;9.70;;
12681;SDS011;6405;59.208;18.216;2024-01-30T09:51:14;21.57;;;9.40;;
12681;SDS011;6405;59.208;18.216;2024-01-30T09:53:42;25.03;;;9.60;;
12681;SDS011;6405;59.208;18.216;2024-01-30T09:56:09;22.27;;;9.57;;
12681;SDS011;6405;59.208;18.216;2024-01-30T09:58:36;19.43;;;9.47;;
12681;SDS011;6405;59.208;18.216;2024-01-30T10:01:02;17.20;;;8.50;;
12681;SDS011;6405;59.208;18.216;2024-01-30T10:03:27;19.87;;;9.03;;
12681;SDS011;6405;59.208;18.216;2024-01-30T10:05:53;20.67;;;9.13;;
12681;SDS011;6405;59.208;18.216;2024-01-30T10:08:21;15.27;;;8.23;;
12681;SDS011;6405;59.208;18.216;2024-01-30T10:10:47;20.57;;;8.77;;
12681;SDS011;6405;59.208;18.216;2024-01-30T10:13:13;19.77;;;8.83;;
12681;SDS011;6405;59.208;18.216;2024-01-30T10:15:39;24.17;;;9.57;;
12681;SDS011;6405;59.208;18.216;2024-01-30T10:18:05;19.13;;;8.97;;
12681;SDS011;6405;59.208;18.216;2024-01-30T10:20:32;18.97;;;9.00;;
12681;SDS011;6405;59.208;18.216;2024-01-30T10:22:58;18.50;;;8.53;;
12681;SDS011;6405;59.208;18.216;2024-01-30T10:25:25;18.73;;;8.27;;
12681;SDS011;6405;59.208;18.216;2024-01-30T10:27:54;14.80;;;8.03;;
12681;SDS011;6405;59.208;18.216;2024-01-30T10:30:21;13.57;;;6.87;;
12681;SDS011;6405;59.208;18.216;2024-01-30T10:32:47;14.87;;;7.77;;
12681;SDS011;6405;59.208;18.216;2024-01-30T10:35:13;14.10;;;7.63;;
12681;SDS011;6405;59.208;18.216;2024-01-30T10:37:39;15.47;;;7.40;;
12681;SDS011;6405;59.208;18.216;2024-01-30T10:40:05;10.07;;;6.10;;
12681;SDS011;6405;59.208;18.216;2024-01-30T10:42:32;12.97;;;6.73;;
12681;SDS011;6405;59.208;18.216;2024-01-30T10:45:08;12.50;;;6.60;;
12681;SDS011;6405;59.208;18.216;2024-01-30T10:47:35;10.43;;;6.73;;
12681;SDS011;6405;59.208;18.216;2024-01-30T10:50:02;22.47;;;8.03;;
12681;SDS011;6405;59.208;18.216;2024-01-30T10:52:31;19.33;;;8.43;;
12681;SDS011;6405;59.208;18.216;2024-01-30T10:54:57;22.30;;;9.27;;
12681;SDS011;6405;59.208;18.216;2024-01-30T10:57:24;22.33;;;8.90;;
12681;SDS011;6405;59.208;18.216;2024-01-30T10:59:52;16.23;;;7.17;;
12681;SDS011;6405;59.208;18.216;2024-01-30T11:02:21;20.67;;;8.83;;
12681;SDS011;6405;59.208;18.216;2024-01-30T11:04:49;23.87;;;8.03;;
12681;SDS011;6405;59.208;18.216;2024-01-30T11:07:15;16.67;;;7.77;;
12681;SDS011;6405;59.208;18.216;2024-01-30T11:09:51;19.37;;;8.67;;
12681;SDS011;6405;59.208;18.216;2024-01-30T11:12:21;21.60;;;8.53;;
12681;SDS011;6405;59.208;18.216;2024-01-30T11:14:49;19.77;;;9.93;;
12681;SDS011;6405;59.208;18.216;2024-01-30T11:17:15;20.43;;;7.80;;
12681;SDS011;6405;59.208;18.216;2024-01-30T11:19:41;19.33;;;8.67;;
12681;SDS011;6405;59.208;18.216;2024-01-30T11:22:07;19.80;;;8.13;;
12681;SDS011;6405;59.208;18.216;2024-01-30T11:24:39;15.40;;;7.50;;
12681;SDS011;6405;59.208;18.216;2024-01-30T11:27:09;18.23;;;8.23;;
12681;SDS011;6405;59.208;18.216;2024-01-30T11:29:38;17.30;;;8.33;;
12681;SDS011;6405;59.208;18.216;2024-01-30T11:32:05;18.60;;;7.80;;
12681;SDS011;6405;59.208;18.216;2024-01-30T11:34:32;15.73;;;8.17;;
12681;SDS011;6405;59.208;18.216;2024-01-30T11:36:59;11.77;;;7.37;;
12681;SDS011;6405;59.208;18.216;2024-01-30T11:39:31;13.27;;;7.63;;
12681;SDS011;6405;59.208;18.216;2024-01-30T11:41:58;14.73;;;6.97;;
12681;SDS011;6405;59.208;18.216;2024-01-30T11:44:24;14.43;;;7.67;;
12681;SDS011;6405;59.208;18.216;2024-01-30T11:46:51;13.30;;;7.27;;
12681;SDS011;6405;59.208;18.216;2024-01-30T11:49:17;13.27;;;7.97;;
12681;SDS011;6405;59.208;18.216;2024-01-30T11:51:45;12.57;;;6.37;;
12681;SDS011;6405;59.208;18.216;2024-01-30T11:54:10;13.63;;;6.70;;
12681;SDS011;6405;59.208;18.216;2024-01-30T11:56:37;15.03;;;7.57;;
12681;SDS011;6405;59.208;18.216;2024-01-30T11:59:03;13.80;;;7.17;;
12681;SDS011;6405;59.208;18.216;2024-01-30T12:01:30;13.67;;;7.10;;
12681;SDS011;6405;59.208;18.216;2024-01-30T12:03:57;10.23;;;6.40;;
12681;SDS011;6405;59.208;18.216;2024-01-30T12:06:24;11.57;;;6.97;;
12681;SDS011;6405;59.208;18.216;2024-01-30T12:08:59;12.37;;;7.20;;
12681;SDS011;6405;59.208;18.216;2024-01-30T12:11:26;10.57;;;6.90;;
12681;SDS011;6405;59.208;18.216;2024-01-30T12:13:52;14.40;;;6.87;;
12681;SDS011;6405;59.208;18.216;2024-01-30T12:16:19;10.90;;;5.97;;
12681;SDS011;6405;59.208;18.216;2024-01-30T12:18:45;11.83;;;6.90;;
12681;SDS011;6405;59.208;18.216;2024-01-30T12:21:11;10.50;;;6.20;;
12681;SDS011;6405;59.208;18.216;2024-01-30T12:23:37;9.60;;;6.20;;
12681;SDS011;6405;59.208;18.216;2024-01-30T12:26:03;9.13;;;5.70;;
12681;SDS011;6405;59.208;18.216;2024-01-30T12:28:32;10.53;;;6.27;;
12681;SDS011;6405;59.208;18.216;2024-01-30T12:31:02;10.80;;;6.73;;
12681;SDS011;6405;59.208;18.216;2024-01-30T12:33:28;9.80;;;6.20;;
12681;SDS011;6405;59.208;18.216;2024-01-30T12:35:54;13.00;;;6.60;;
12681;SDS011;6405;59.208;18.216;2024-01-30T12:38:21;13.87;;;7.13;;
12681;SDS011;6405;59.208;18.216;2024-01-30T12:40:46;9.93;;;6.60;;
12681;SDS011;6405;59.208;18.216;2024-01-30T12:43:13;13.63;;;7.33;;
12681;SDS011;6405;59.208;18.216;2024-01-30T12:45:40;12.57;;;6.70;;
12681;SDS011;6405;59.208;18.216;2024-01-30T12:48:07;10.80;;;7.13;;
12681;SDS011;6405;59.208;18.216;2024-01-30T12:50:33;10.87;;;6.47;;
12681;SDS011;6405;59.208;18.216;2024-01-30T12:52:59;11.07;;;6.73;;
12681;SDS011;6405;59.208;18.216;2024-01-30T12:55:25;12.23;;;6.83;;
12681;SDS011;6405;59.208;18.216;2024-01-30T12:57:53;12.00;;;6.80;;
12681;SDS011;6405;59.208;18.216;2024-01-30T13:00:20;12.37;;;6.60;;
12681;SDS011;6405;59.208;18.216;2024-01-30T13:02:45;10.53;;;6.13;;
12681;SDS011;6405;59.208;18.216;2024-01-30T13:05:12;12.03;;;6.17;;
12681;SDS011;6405;59.208;18.216;2024-01-30T13:07:38;9.43;;;6.20;;
12681;SDS011;6405;59.208;18.216;2024-01-30T13:10:04;12.37;;;7.13;;
12681;SDS011;6405;59.208;18.216;2024-01-30T13:12:30;10.27;;;6.30;;
12681;SDS011;6405;59.208;18.216;2024-01-30T13:14:57;13.03;;;7.03;;
12681;SDS011;6405;59.208;18.216;2024-01-30T13:17:23;19.93;;;7.30;;
12681;SDS011;6405;59.208;18.216;2024-01-30T13:19:49;12.20;;;6.63;;
12681;SDS011;6405;59.208;18.216;2024-01-30T13:22:15;10.27;;;6.53;;
12681;SDS011;6405;59.208;18.216;2024-01-30T13:24:41;11.80;;;6.90;;
12681;SDS011;6405;59.208;18.216;2024-01-30T13:27:07;10.30;;;6.73;;
12681;SDS011;6405;59.208;18.216;2024-01-30T13:29:33;11.57;;;6.83;;
12681;SDS011;6405;59.208;18.216;2024-01-30T13:31:59;11.20;;;7.47;;
12681;SDS011;6405;59.208;18.216;2024-01-30T13:34:25;9.23;;;6.30;;
12681;SDS011;6405;59.208;18.216;2024-01-30T13:36:50;13.00;;;6.73;;
12681;SDS011;6405;59.208;18.216;2024-01-30T13:39:17;11.80;;;7.40;;
12681;SDS011;6405;59.208;18.216;2024-01-30T13:41:42;13.60;;;7.80;;
12681;SDS011;6405;59.208;18.216;2024-01-30T13:44:08;12.97;;;7.33;;
12681;SDS011;6405;59.208;18.216;2024-01-30T13:46:34;12.63;;;7.50;;
12681;SDS011;6405;59.208;18.216;2024-01-30T13:49:01;9.63;;;6.57;;
12681;SDS011;6405;59.208;18.216;2024-01-30T13:51:27;11.63;;;6.63;;
12681;SDS011;6405;59.208;18.216;2024-01-30T13:53:52;10.37;;;6.30;;
12681;SDS011;6405;59.208;18.216;2024-01-30T13:56:21;11.70;;;6.77;;
12681;SDS011;6405;59.208;18.216;2024-01-30T13:58:50;10.33;;;6.67;;
12681;SDS011;6405;59.208;18.216;2024-01-30T14:01:16;11.07;;;6.97;;
12681;SDS011;6405;59.208;18.216;2024-01-30T14:03:42;9.23;;;6.30;;
12681;SDS011;6405;59.208;18.216;2024-01-30T14:06:07;12.77;;;7.20;;
12681;SDS011;6405;59.208;18.216;2024-01-30T14:08:33;10.77;;;6.83;;
12681;SDS011;6405;59.208;18.216;2024-01-30T14:10:59;11.83;;;7.10;;
12681;SDS011;6405;59.208;18.216;2024-01-30T14:13:25;9.23;;;6.00;;
12681;SDS011;6405;59.208;18.216;2024-01-30T14:15:53;12.87;;;6.90;;
12681;SDS011;6405;59.208;18.216;2024-01-30T14:18:19;10.17;;;6.17;;
12681;SDS011;6405;59.208;18.216;2024-01-30T14:20:45;12.03;;;7.07;;
12681;SDS011;6405;59.208;18.216;2024-01-30T14:23:11;17.63;;;7.70;;
12681;SDS011;6405;59.208;18.216;2024-01-30T14:25:37;14.27;;;7.23;;